Flight Track Log - Related Links

Times and Time Zones

All times are in EDT time to prevent confusion due to time zone crossing. See the EJA941 flight status page for this flight to view local times or setup timezone preferences in your user account.

Time Position Orientation Groundspeed Altitude Reporting Facility
EDT Latitude Longitude Course Direction KTS MPH feet Rate Location/Type
Thu 12:22:47 PM 37.4000 -121.9667 31° Northeast 189 217 2,100  Level Northern Cal TRACON
Thu 12:23:47 PM 37.4333 -121.9500 22° Northeast 231 266 4,900 1,488 Climbing Northern Cal TRACON
Thu 12:24:48 PM 37.4000 -121.8833 122° Southeast 218 251 5,100 714 Climbing Northern Cal TRACON
Thu 12:25:53 PM 37.3667 -121.8333 130° Southeast 225 259 6,400 1,762 Climbing Northern Cal TRACON
Thu 12:26:54 PM 37.3167 -121.8167 165° South 242 278 8,800 2,430 Climbing Northern Cal TRACON
Thu 12:27:54 PM 37.3333 -121.9000 284° West 236 272 11,300 1,942 Climbing Northern Cal TRACON
Thu 12:28:00 PM 38.1500 -121.7375 31° Northeast  Level FlightAware Approximate
Thu 12:29:13 PM 37.3975 -121.9478 329° Northwest 249 287 13,300  Level Oakland Center
Thu 12:30:14 PM 37.4725 -121.9558 355° North 269 310 14,700 1,268 Climbing Oakland Center
Thu 12:31:16 PM 37.5761 -121.9392 North 321 369 15,900 968 Climbing Oakland Center
Thu 12:32:18 PM 37.6694 -121.9000 18° North 350 403 16,700 1,122 Climbing Oakland Center
Thu 12:33:19 PM 37.7678 -121.8556 20° North 368 423 18,200 1,463 Climbing Oakland Center
Thu 12:34:21 PM 37.8689 -121.8108 19° North 382 440 19,700 1,452 Climbing Oakland Center
Thu 12:35:23 PM 37.9700 -121.7658 19° North 387 445 21,200 1,463 Climbing Oakland Center
Thu 12:36:24 PM 38.0617 -121.6928 32° Northeast 395 455 22,700 1,659 Climbing Oakland Center
Thu 12:37:26 PM 38.1517 -121.5639 48° Northeast 406 467 24,600 1,597 Climbing Oakland Center
Thu 12:38:28 PM 38.2292 -121.4497 49° Northeast 413 475 26,000 683 Climbing Oakland Center
Thu 12:39:29 PM 38.3094 -121.3325 49° Northeast 437 503 26,000  Level Oakland Center
Thu 12:40:31 PM 38.3956 -121.2061 49° Northeast 474 545 26,000 97 Level Oakland Center
Thu 12:41:33 PM 38.4853 -121.0747 49° Northeast 498 573 26,200 780 Climbing Oakland Center
Thu 12:42:34 PM 38.5750 -120.9444 49° Northeast 499 574 27,600 1,561 Climbing Oakland Center
Thu 12:43:36 PM 38.6789 -120.7925 49° Northeast 481 554 29,400 1,597 Climbing Oakland Center
Thu 12:44:38 PM 38.7644 -120.6650 49° Northeast 475 547 30,900 1,452 Climbing Oakland Center
Thu 12:45:40 PM 38.8503 -120.5369 49° Northeast 475 547 32,400 1,220 Climbing Oakland Center
Thu 12:46:41 PM 38.9378 -120.4064 49° Northeast 482 555 33,400 976 Climbing Oakland Center
Thu 12:47:43 PM 39.0267 -120.2714 50° Northeast 493 567 34,400 1,016 Climbing Oakland Center
Thu 12:48:45 PM 39.1292 -120.1186 49° Northeast 504 580 35,500 1,073 Climbing Oakland Center
Thu 12:49:46 PM 39.2225 -119.9778 49° Northeast 513 590 36,600 1,024 Climbing Oakland Center
Thu 12:50:48 PM 39.3189 -119.8342 49° Northeast 536 617 37,600 1,016 Climbing Oakland Center
Thu 12:51:50 PM 39.4100 -119.6917 50° Northeast 516 594 38,700 1,113 Climbing Oakland Center
Thu 12:52:52 PM 39.5047 -119.5475 50° Northeast 522 601 39,900 1,073 Climbing Oakland Center
Thu 12:53:53 PM 39.5986 -119.4025 50° Northeast 523 602 40,900 541 Climbing Oakland Center
Thu 12:54:54 PM 39.6942 -119.2556 50° Northeast 525 604 41,000 49 Climbing Oakland Center
Thu 12:55:56 PM 39.7925 -119.1036 50° Northeast 540 621 41,000  Level Oakland Center
Thu 12:56:58 PM 39.9042 -118.9058 54° Northeast 557 641 41,000  Level Oakland Center
Thu 12:57:59 PM 39.9772 -118.7222 63° Northeast 563 648 41,000  Level Oakland Center
Thu 12:59:01 PM 40.0503 -118.5383 63° Northeast 566 651 41,000  Level Oakland Center
Thu 01:00:02 PM 40.1236 -118.3550 62° Northeast 565 650 41,000  Level Oakland Center
Thu 01:01:04 PM 40.1969 -118.1719 62° Northeast 567 652 41,000  Level Oakland Center
Thu 01:02:06 PM 40.2706 -117.9828 63° Northeast 567 652 41,000  Level Oakland Center
Thu 01:03:07 PM 40.3400 -117.8067 63° Northeast 567 652 41,000  Level Oakland Center
Thu 01:04:09 PM 40.4200 -117.6011 63° Northeast 567 652 41,000  Level Oakland Center
Thu 01:05:10 PM 40.4894 -117.4244 63° Northeast 565 650 41,000  Level Oakland Center
Thu 01:06:12 PM 40.5583 -117.2469 63° Northeast 565 650 41,000  Level Oakland Center
Thu 01:07:14 PM 40.6561 -117.0508 57° Northeast 568 654 41,000  Level Oakland Center
Thu 01:08:15 PM 40.7453 -116.8922 53° Northeast 560 644 41,000  Level Oakland Center
Thu 01:08:45 PM 40.7908 -116.8117 53° Northeast 562 647 41,000  Level Salt Lake Center
Thu 01:09:47 PM 40.8822 -116.6158 58° Northeast 559 643 41,000  Level Salt Lake Center
Thu 01:10:49 PM 40.9617 -116.4483 58° Northeast 559 643 41,000  Level Salt Lake Center
Thu 01:11:51 PM 41.0236 -116.2683 65° Northeast 558 642 41,000  Level Salt Lake Center
Thu 01:12:53 PM 41.0844 -116.0503 70° East 564 649 41,000  Level Salt Lake Center
Thu 01:13:55 PM 41.1386 -115.8656 69° East 562 647 41,000  Level Salt Lake Center
Thu 01:14:57 PM 41.2028 -115.6506 68° East 560 644 41,000  Level Salt Lake Center
Thu 01:15:59 PM 41.2558 -115.4644 69° East 560 644 41,000  Level Salt Lake Center
Thu 01:17:01 PM 41.3172 -115.2489 69° East 559 643 41,000  Level Salt Lake Center
Thu 01:18:03 PM 41.3706 -115.0633 69° East 559 643 41,000  Level Salt Lake Center
Thu 01:19:05 PM 41.4319 -114.8475 69° East 559 643 41,000  Level Salt Lake Center
Thu 01:20:07 PM 41.4792 -114.6783 70° East 556 640 41,000  Level Salt Lake Center
Thu 01:21:09 PM 41.5428 -114.4494 70° East 551 634 41,000  Level Salt Lake Center
Thu 01:22:12 PM 41.5956 -114.2597 70° East 547 629 41,000  Level Salt Lake Center
Thu 01:23:14 PM 41.6475 -114.0672 70° East 550 633 41,000  Level Salt Lake Center
Thu 01:24:16 PM 41.7006 -113.8767 69° East 548 631 41,000  Level Salt Lake Center
Thu 01:25:18 PM 41.7525 -113.6850 70° East 549 632 41,000  Level Salt Lake Center
Thu 01:26:20 PM 41.8033 -113.4939 70° East 546 628 41,000  Level Salt Lake Center
Thu 01:27:22 PM 41.8650 -113.2642 70° East 546 628 41,000  Level Salt Lake Center
Thu 01:28:24 PM 41.9147 -113.0731 71° East 542 624 41,000  Level Salt Lake Center
Thu 01:29:26 PM 41.9639 -112.8836 71° East 537 618 41,000  Level Salt Lake Center
Thu 01:30:28 PM 42.0136 -112.6956 70° East 534 615 41,000  Level Salt Lake Center
Thu 01:31:30 PM 42.0622 -112.5056 71° East 535 616 41,000  Level Salt Lake Center
Thu 01:32:32 PM 42.1111 -112.3150 71° East 536 617 41,000  Level Salt Lake Center
Thu 01:33:34 PM 42.1692 -112.0856 71° East 540 621 41,000  Level Salt Lake Center
Thu 01:34:36 PM 42.2167 -111.8939 71° East 540 621 41,000  Level Salt Lake Center
Thu 01:35:38 PM 42.2647 -111.7019 71° East 540 621 41,000  Level Salt Lake Center
Thu 01:36:40 PM 42.3122 -111.5089 72° East 541 623 41,000  Level Salt Lake Center
Thu 01:37:42 PM 42.3592 -111.3178 72° East 537 618 41,000  Level Salt Lake Center
Thu 01:38:44 PM 42.4050 -111.1267 72° East 535 616 41,000  Level Salt Lake Center
Thu 01:39:46 PM 42.4522 -110.9294 72° East 534 615 41,000  Level Salt Lake Center
Thu 01:40:49 PM 42.5036 -110.7178 72° East 531 611 41,000  Level Salt Lake Center
Thu 01:41:51 PM 42.5467 -110.5353 72° East 530 610 41,000  Level Salt Lake Center
Thu 01:42:53 PM 42.5964 -110.3233 72° East 528 608 41,000  Level Salt Lake Center
Thu 01:43:55 PM 42.6389 -110.1417 72° East 527 606 41,000  Level Salt Lake Center
Thu 01:44:57 PM 42.6883 -109.9289 72° East 530 610 41,000  Level Salt Lake Center
Thu 01:45:59 PM 42.7300 -109.7458 73° East 529 609 41,000  Level Salt Lake Center
Thu 01:47:01 PM 42.7792 -109.5322 73° East 529 609 41,000  Level Salt Lake Center
Thu 01:48:03 PM 42.8203 -109.3486 73° East 529 609 41,000  Level Salt Lake Center
Thu 01:49:05 PM 42.8678 -109.1342 73° East 528 608 41,000  Level Salt Lake Center
Thu 01:50:07 PM 42.9069 -108.9550 73° East 519 597 41,000  Level Salt Lake Center
Thu 01:51:09 PM 42.9467 -108.7731 73° East 522 601 41,000  Level Salt Lake Center
Thu 01:52:11 PM 42.9936 -108.5606 73° East 524 603 41,000  Level Salt Lake Center
Thu 01:53:13 PM 43.0325 -108.3783 74° East 521 600 41,000  Level Salt Lake Center
Thu 01:54:15 PM 43.0789 -108.1636 73° East 526 605 41,000  Level Salt Lake Center
Thu 01:55:17 PM 43.1175 -107.9789 74° East 527 606 41,000  Level Salt Lake Center
Thu 01:56:19 PM 43.1619 -107.7628 74° East 529 609 41,000  Level Salt Lake Center
Thu 01:57:21 PM 43.2014 -107.5769 74° East 530 610 41,000  Level Salt Lake Center
Thu 01:58:23 PM 43.2458 -107.3597 74° East 530 610 41,000  Level Salt Lake Center
Thu 01:59:25 PM 43.2811 -107.1836 75° East 528 608 41,000  Level Salt Lake Center
Thu 02:00:28 PM 43.3233 -106.9683 75° East 523 602 41,000  Level Salt Lake Center
Thu 02:01:30 PM 43.3608 -106.7872 74° East 517 595 41,000  Level Salt Lake Center
Thu 02:02:32 PM 43.4008 -106.5731 76° East 516 594 41,000  Level Denver Center
Thu 02:03:34 PM 43.4369 -106.3897 75° East 518 596 41,000  Level Denver Center
Thu 02:04:36 PM 43.4775 -106.1747 75° East 519 597 41,000  Level Denver Center
Thu 02:05:38 PM 43.5128 -105.9911 75° East 518 596 41,000  Level Denver Center
Thu 02:06:40 PM 43.5539 -105.7756 75° East 519 597 41,000  Level Denver Center
Thu 02:07:42 PM 43.5886 -105.5925 75° East 517 595 41,000  Level Denver Center
Thu 02:08:44 PM 43.6272 -105.3811 76° East 512 589 41,000  Level Denver Center
Thu 02:09:46 PM 43.6606 -105.1989 76° East 511 588 41,000  Level Denver Center
Thu 02:10:48 PM 43.6986 -104.9831 76° East 513 590 41,000  Level Denver Center
Thu 02:11:51 PM 43.7317 -104.7964 76° East 516 594 41,000  Level Denver Center
Thu 02:12:53 PM 43.7653 -104.6092 76° East 519 597 41,000  Level Denver Center
Thu 02:13:55 PM 43.8031 -104.3908 76° East 521 600 41,000  Level Denver Center
Thu 02:14:56 PM 43.8297 -104.2344 77° East 521 600 41,000  Level Denver Center
Thu 02:15:59 PM 43.8731 -103.9872 76° East 520 598 41,000  Level Denver Center
Thu 02:17:01 PM 43.9050 -103.8000 77° East 521 600 41,000  Level Denver Center
Thu 02:18:03 PM 43.9419 -103.5856 76° East 515 593 41,000  Level Denver Center
Thu 02:19:05 PM 43.9711 -103.4000 78° East 514 592 41,000  Level Denver Center
Thu 02:20:07 PM 44.0069 -103.1836 77° East 514 592 41,000  Level Denver Center
Thu 02:21:09 PM 44.0378 -102.9986 77° East 513 590 41,000  Level Denver Center
Thu 02:22:11 PM 44.0706 -102.7964 77° East 514 592 41,000  Level Denver Center
Thu 02:23:13 PM 44.0997 -102.6011 78° East 514 592 41,000  Level Denver Center
Thu 02:24:15 PM 44.1292 -102.4078 78° East 514 592 41,000  Level Denver Center
Thu 02:25:17 PM 44.1581 -102.2114 78° East 517 595 41,000  Level Denver Center
Thu 02:26:19 PM 44.1914 -101.9767 79° East 516 594 41,000  Level Denver Center
Thu 02:27:22 PM 44.2214 -101.7792 78° East 522 601 41,000  Level Denver Center
Thu 02:28:24 PM 44.2475 -101.5792 80° East 524 603 41,000  Level Denver Center
Thu 02:29:26 PM 44.2758 -101.3811 79° East 523 602 41,000  Level Denver Center
Thu 02:30:28 PM 44.3058 -101.1833 78° East 522 601 41,000  Level Denver Center
Thu 02:31:30 PM 44.3336 -100.9856 79° East 521 600 41,000  Level Denver Center
Thu 02:33:01 PM 44.3803 -100.6717 78° East 522 601 41,000  Level Minneapolis Center
Thu 02:34:02 PM 44.4072 -100.4725 79° East 524 603 41,000  Level Minneapolis Center
Thu 02:35:05 PM 44.4350 -100.2736 79° East 525 604 41,000  Level Minneapolis Center
Thu 02:36:06 PM 44.4678 -100.0342 79° East 526 605 41,000  Level Minneapolis Center
Thu 02:37:09 PM 44.4936 -99.8339 80° East 528 608 41,000  Level Minneapolis Center
Thu 02:38:13 PM 44.5194 -99.6325 80° East 530 610 41,000  Level Minneapolis Center
Thu 02:39:13 PM 44.5458 -99.4331 79° East 527 606 41,000  Level Minneapolis Center
Thu 02:40:17 PM 44.5714 -99.2331 80° East 526 605 41,000  Level Minneapolis Center
Thu 02:41:17 PM 44.6019 -98.9908 80° East 528 608 41,000  Level Minneapolis Center
Thu 02:42:21 PM 44.6261 -98.7897 80° East 528 608 41,000  Level Minneapolis Center
Thu 02:43:21 PM 44.6511 -98.5903 80° East 523 602 41,000  Level Minneapolis Center
Thu 02:44:24 PM 44.6747 -98.3878 81° East 526 605 41,000  Level Minneapolis Center
Thu 02:45:25 PM 44.7000 -98.1714 81° East 527 606 41,000  Level Minneapolis Center
Thu 02:46:28 PM 44.7239 -97.9667 81° East 531 611 41,000  Level Minneapolis Center
Thu 02:47:29 PM 44.7458 -97.7617 81° East 531 611 41,000  Level Minneapolis Center
Thu 02:48:32 PM 44.7678 -97.5589 81° East 527 606 41,000  Level Minneapolis Center
Thu 02:49:35 PM 44.7942 -97.3169 81° East 522 601 41,000  Level Minneapolis Center
Thu 02:50:36 PM 44.8150 -97.1147 82° East 521 600 41,000  Level Minneapolis Center
Thu 02:51:39 PM 44.8369 -96.9122 81° East 523 602 41,000  Level Minneapolis Center
Thu 02:52:40 PM 44.8572 -96.7100 82° East 522 601 41,000  Level Minneapolis Center
Thu 02:53:43 PM 44.8772 -96.5056 82° East 525 604 41,000  Level Minneapolis Center
Thu 02:54:44 PM 44.8978 -96.3031 82° East 521 600 41,000  Level Minneapolis Center
Thu 02:55:47 PM 44.9169 -96.0994 82° East 522 601 41,000  Level Minneapolis Center
Thu 02:56:48 PM 44.9411 -95.8550 82° East 522 601 41,000  Level Minneapolis Center
Thu 02:57:51 PM 44.9597 -95.6517 83° East 521 600 41,000  Level Minneapolis Center
Thu 02:58:52 PM 44.9789 -95.4469 82° East 525 604 41,000  Level Minneapolis Center
Thu 02:59:56 PM 44.9972 -95.2431 83° East 525 604 41,000  Level Minneapolis Center
Thu 03:00:56 PM 45.0147 -95.0378 83° East 526 605 41,000  Level Minneapolis Center
Thu 03:02:00 PM 45.0328 -94.8317 83° East 528 608 41,000  Level Minneapolis Center
Thu 03:03:01 PM 45.0511 -94.6008 84° East 530 610 41,000  Level Minneapolis Center
Thu 03:04:04 PM 45.0683 -94.3950 83° East 529 609 41,000  Level Minneapolis Center
Thu 03:05:05 PM 45.0811 -94.2283 84° East 532 612 41,000  Level Minneapolis Center
Thu 03:06:08 PM 45.1003 -93.9800 84° East 529 609 41,000  Level Minneapolis Center
Thu 03:07:09 PM 45.1164 -93.7733 84° East 528 608 41,000  Level Minneapolis Center
Thu 03:08:13 PM 45.1347 -93.5239 84° East 527 606 41,000  Level Minneapolis Center
Thu 03:09:14 PM 45.1411 -93.3142 87° East 529 609 41,000  Level Minneapolis Center
Thu 03:10:15 PM 45.1214 -93.1036 97° East 534 615 41,000  Level Minneapolis Center
Thu 03:11:19 PM 45.1072 -92.8939 95° East 532 612 41,000  Level Minneapolis Center
Thu 03:12:19 PM 45.1017 -92.6853 92° East 528 608 41,000  Level Minneapolis Center
Thu 03:13:33 PM 45.0961 -92.4753 92° East 531 611 41,000  Level Minneapolis Center
Thu 03:14:36 PM 45.0872 -92.2247 93° East 532 612 41,000  Level Minneapolis Center
Thu 03:15:37 PM 45.0789 -91.9750 93° East 531 611 41,000  Level Minneapolis Center
Thu 03:16:41 PM 45.0714 -91.7658 93° East 532 612 41,000  Level Minneapolis Center
Thu 03:17:44 PM 45.0628 -91.5569 93° East 533 613 41,000  Level Minneapolis Center
Thu 03:18:57 PM 45.0542 -91.3464 93° East 535 616 41,000  Level Minneapolis Center
Thu 03:20:00 PM 45.0433 -91.0942 93° East 536 617 41,000  Level Minneapolis Center
Thu 03:21:00 PM 45.0336 -90.8597 93° East 533 613 41,000  Level Minneapolis Center
Thu 03:22:04 PM 45.0247 -90.6492 93° East 537 618 41,000  Level Minneapolis Center
Thu 03:23:05 PM 45.0142 -90.4411 94° East 534 615 41,000  Level Minneapolis Center
Thu 03:24:09 PM 45.0033 -90.2311 94° East 538 619 41,000  Level Minneapolis Center
Thu 03:25:09 PM 44.9908 -89.9811 94° East 534 615 41,000  Level Minneapolis Center
Thu 03:26:13 PM 44.9794 -89.7719 94° East 536 617 41,000  Level Minneapolis Center
Thu 03:27:13 PM 44.9669 -89.5542 95° East 535 616 41,000  Level Minneapolis Center
Thu 03:28:17 PM 44.9553 -89.3444 94° East 536 617 41,000  Level Minneapolis Center
Thu 03:29:18 PM 44.9428 -89.1328 95° East 539 620 41,000  Level Minneapolis Center
Thu 03:30:21 PM 44.9297 -88.9206 95° East 541 623 41,000  Level Minneapolis Center
Thu 03:31:22 PM 44.9167 -88.7086 95° East 541 623 41,000  Level Minneapolis Center
Thu 03:32:25 PM 44.9003 -88.4608 95° East 542 624 41,000  Level Minneapolis Center
Thu 03:33:26 PM 44.8886 -88.2847 95° East 542 624 41,000  Level Minneapolis Center
Thu 03:34:29 PM 44.8719 -88.0406 95° East 545 627 41,000  Level Minneapolis Center
Thu 03:35:31 PM 44.8569 -87.8297 96° East 543 625 41,000  Level Minneapolis Center
Thu 03:36:32 PM 44.8419 -87.6172 96° East 544 626 41,000  Level Minneapolis Center
Thu 03:37:38 PM 44.8211 -87.3622 96° East 549 632 41,000  Level Minneapolis Center
Thu 03:38:39 PM 44.8047 -87.1519 96° East 545 627 41,000  Level Minneapolis Center
Thu 03:39:42 PM 44.7892 -86.9411 96° East 544 626 41,000  Level Minneapolis Center
Thu 03:40:43 PM 44.7719 -86.7306 96° East 548 631 41,000  Level Minneapolis Center
Thu 03:41:46 PM 44.7544 -86.5158 96° East 552 635 41,000  Level Minneapolis Center
Thu 03:42:47 PM 44.7322 -86.2614 97° East 548 631 41,000  Level Minneapolis Center
Thu 03:43:50 PM 44.7142 -86.0486 97° East 548 631 41,000  Level Minneapolis Center
Thu 03:44:54 PM 44.6947 -85.8344 97° East 551 634 41,000  Level Minneapolis Center
Thu 03:45:54 PM 44.6739 -85.5958 97° East 552 635 41,000  Level Minneapolis Center
Thu 03:46:57 PM 44.6544 -85.3842 97° East 551 634 41,000 -48 Level Minneapolis Center
Thu 03:47:58 PM 44.6344 -85.1706 97° East 553 636 40,900  Descending Minneapolis Center
Thu 03:49:02 PM 44.6139 -84.9583 98° East 551 634 41,000 48 Climbing Minneapolis Center
Thu 03:50:03 PM 44.5933 -84.7453 98° East 553 636 41,000  Level Minneapolis Center
Thu 03:51:04 PM 44.5767 -84.5750 98° East 553 636 41,000  Level Minneapolis Center
Thu 03:52:08 PM 44.5461 -84.2764 98° East 554 638 41,000  Level Minneapolis Center
Thu 03:53:08 PM 44.5236 -84.0628 98° East 555 639 41,000 -48 Level Minneapolis Center
Thu 03:54:12 PM 44.5017 -83.8503 98° East 554 638 40,900  Descending Minneapolis Center
Thu 03:55:13 PM 44.4794 -83.6378 98° East 554 638 41,000 48 Climbing Minneapolis Center
Thu 03:56:17 PM 44.4558 -83.4239 99° East 556 640 41,000  Level Minneapolis Center
Thu 03:57:17 PM 44.4428 -83.1658 94° East 557 641 41,000 -48 Level Minneapolis Center
Thu 03:58:21 PM 44.4378 -82.9497 92° East 557 641 40,900  Descending Minneapolis Center
Thu 03:59:27 PM 44.4300 -82.7344 93° East 558 642 41,000 30 Climbing Minneapolis Center
Thu 04:01:43 PM 44.3833 -82.2000 97° East 560 644 41,000  Level Toronto Center
Thu 04:02:43 PM 44.3833 -81.9833 90° East 560 644 41,000  Level Toronto Center
Thu 04:03:43 PM 44.3833 -81.7500 90° East 560 644 41,000  Level Toronto Center
Thu 04:04:43 PM 44.3667 -81.5500 97° East 560 644 41,000  Level Toronto Center
Thu 04:05:43 PM 44.3500 -81.3167 96° East 560 644 41,000  Level Toronto Center
Thu 04:06:43 PM 44.3333 -81.1167 97° East 560 644 41,000  Level Toronto Center
Thu 04:07:43 PM 44.3167 -80.8833 96° East 560 644 41,000  Level Toronto Center
Thu 04:08:43 PM 44.3333 -80.6833 83° East 560 644 41,000  Level Toronto Center
Thu 04:09:43 PM 44.3167 -80.4500 96° East 560 644 41,000  Level Toronto Center
Thu 04:10:43 PM 44.3000 -80.2333 96° East 560 644 41,000  Level Toronto Center
Thu 04:11:43 PM 44.2833 -80.0333 97° East 560 644 41,000  Level Toronto Center
Thu 04:12:43 PM 44.2667 -79.8000 96° East 560 644 41,000  Level Toronto Center
Thu 04:13:43 PM 44.2500 -79.5833 96° East 560 644 41,000  Level Toronto Center
Thu 04:14:43 PM 44.2500 -79.3500 90° East 560 644 41,000  Level Toronto Center
Thu 04:15:43 PM 44.2333 -79.1500 97° East 560 644 41,000  Level Toronto Center
Thu 04:16:43 PM 44.2167 -78.9333 96° East 570 656 41,000  Level Toronto Center
Thu 04:17:43 PM 44.2000 -78.7000 96° East 560 644 41,000  Level Toronto Center
Thu 04:18:43 PM 44.1833 -78.5000 97° East 570 656 41,000  Level Toronto Center
Thu 04:19:43 PM 44.1500 -78.2667 101° East 570 656 41,000  Level Toronto Center
Thu 04:20:43 PM 44.1333 -78.0500 96° East 570 656 41,000  Level Toronto Center
Thu 04:21:43 PM 44.1167 -77.8500 97° East 570 656 41,000  Level Toronto Center
Thu 04:22:43 PM 44.1000 -77.6167 96° East 570 656 41,000  Level Toronto Center
Thu 04:23:43 PM 44.0833 -77.4000 96° East 570 656 41,000  Level Toronto Center
Thu 04:24:43 PM 44.0500 -77.1667 101° East 570 656 41,000  Level Toronto Center
Thu 04:25:43 PM 44.0333 -76.9667 97° East 570 656 41,000  Level Toronto Center
Thu 04:26:43 PM 44.0167 -76.7500 96° East 570 656 41,000  Level Toronto Center
Thu 04:27:43 PM 43.9833 -76.5333 102° East 570 656 41,000  Level Toronto Center
Thu 04:28:17 PM 43.9967 -76.4781 71° East 567 652 41,000  Level Boston Center
Thu 04:29:17 PM 43.9747 -76.2603 98° East 561 646 41,000  Level Boston Center
Thu 04:30:15 PM 43.9528 -76.0367 98° East 566 651 41,000 -51 Level Boston Center
Thu 04:31:15 PM 43.9367 -75.8164 96° East 571 657 40,900 -347 Descending Boston Center
Thu 04:32:16 PM 43.9219 -75.5967 95° East 576 663 40,300 -1,488 Descending Boston Center
Thu 04:33:16 PM 43.9031 -75.3736 97° East 581 669 37,900 -2,400 Descending Boston Center
Thu 04:34:16 PM 43.8875 -75.1511 95° East 581 669 35,500 -2,410 Descending Boston Center
Thu 04:35:18 PM 43.8678 -74.9225 97° East 581 669 33,000 -2,450 Descending Boston Center
Thu 04:36:16 PM 43.8472 -74.7000 97° East 581 669 30,600 -2,441 Descending Boston Center
Thu 04:37:16 PM 43.8286 -74.4747 96° East 581 669 28,200 -2,370 Descending Boston Center
Thu 04:38:15 PM 43.8114 -74.2583 96° East 581 669 25,900 -2,319 Descending Boston Center
Thu 04:39:15 PM 43.7917 -74.0478 97° East 569 655 23,600 -2,182 Descending Boston Center
Thu 04:40:16 PM 43.7714 -73.8375 98° East 535 616 21,500 -2,083 Descending Boston Center
Thu 04:41:16 PM 43.7569 -73.6503 96° East 500 575 19,400 -1,934 Descending Boston Center
Thu 04:42:17 PM 43.7419 -73.4661 96° East 476 548 17,600 -1,934 Descending Boston Center
Thu 04:43:17 PM 43.7269 -73.2906 97° East 463 533 15,500 -2,479 Descending Boston Center
Thu 04:44:18 PM 43.7342 -73.1325 86° East 439 505 12,600 -2,390 Descending Boston Center
Thu 04:45:15 PM 43.7411 -73.0061 86° East 387 445 10,800 -1,692 Descending Boston Center
Thu 04:46:15 PM 43.7478 -72.8856 86° East 330 380 9,300 -1,785 Descending Boston Center
Thu 04:47:16 PM 43.7544 -72.7678 85° East 304 350 7,200 -1,131 Descending Boston Center
Thu 04:48:17 PM 43.7631 -72.6556 84° East 297 342 7,000 -99 Descending Boston Center
Thu 04:49:17 PM 43.7236 -72.5436 116° Southeast 276 318 7,000 -458 Level Boston Center
Thu 04:50:15 PM 43.6883 -72.4631 121° Southeast 270 311 6,100 -1,261 Descending Boston Center
Thu 04:51:16 PM 43.6611 -72.3797 114° Southeast 248 285 4,500 -1,131 Descending Boston Center
Thu 04:52:17 PM 43.6403 -72.3053 111° Southeast 233 268 3,800 -689 Descending Boston Center

Login

Don't have an account? Register now (free) for customized features, flight alerts, and more!